createdAt,value
2022-12-01T00:01:12.709Z,97385.69
2022-12-01T00:06:10.727Z,97371.47
2022-12-01T00:11:09.931Z,97370.91
2022-12-01T00:16:13.282Z,97377.81
2022-12-01T00:21:07.862Z,97379.56
2022-12-01T00:26:05.286Z,97375.97
2022-12-01T00:30:59.009Z,97378.81
2022-12-01T00:36:00.553Z,97380.78
2022-12-01T00:40:53.942Z,97382.09
2022-12-01T00:45:47.362Z,97376.13
2022-12-01T00:50:40.809Z,97371.28
2022-12-01T00:55:35.613Z,97377.84
2022-12-01T01:00:29.378Z,97379.47
2022-12-01T01:05:23.089Z,97374.50
2022-12-01T01:10:16.499Z,97374.84
2022-12-01T01:15:12.332Z,97371.22
2022-12-01T01:20:07.097Z,97374.91
2022-12-01T01:25:00.480Z,97383.66
2022-12-01T01:29:53.892Z,97375.69
2022-12-01T01:34:48.550Z,97376.22
2022-12-01T01:39:41.860Z,97376.72
2022-12-01T01:44:51.273Z,97367.13
2022-12-01T01:49:44.955Z,97359.91
2022-12-01T01:54:45.362Z,97358.63
2022-12-01T01:59:44.733Z,97351.13
2022-12-01T02:04:41.545Z,97356.31
2022-12-01T02:09:35.620Z,97358.88
2022-12-01T02:14:58.387Z,97369.47
2022-12-01T02:20:45.260Z,97349.69
2022-12-01T02:25:51.719Z,97361.94
2022-12-01T02:30:51.906Z,97361.41
2022-12-01T02:35:51.564Z,97363.47
2022-12-01T02:40:53.540Z,97357.13
2022-12-01T02:45:56.630Z,97365.00
2022-12-01T02:50:52.147Z,97364.84
2022-12-01T02:55:58.975Z,97358.53
2022-12-01T03:01:29.029Z,97368.75
2022-12-01T03:06:38.238Z,97370.31
2022-12-01T03:11:45.342Z,97362.78
2022-12-01T03:16:51.705Z,97359.03
2022-12-01T03:21:53.860Z,97357.22
2022-12-01T03:26:53.583Z,97354.28
2022-12-01T03:31:56.034Z,97353.53
2022-12-01T03:36:54.677Z,97348.16
2022-12-01T03:41:55.228Z,97356.03
2022-12-01T03:46:58.126Z,97358.00
2022-12-01T03:52:07.030Z,97365.13
2022-12-01T03:57:10.660Z,97363.63
2022-12-01T04:02:07.862Z,97370.59
2022-12-01T04:07:01.389Z,97364.66
2022-12-01T04:12:12.006Z,97361.50
2022-12-01T04:17:06.672Z,97368.91
2022-12-01T04:22:00.033Z,97366.03
2022-12-01T04:26:53.390Z,97366.03
2022-12-01T04:31:46.796Z,97375.31
2022-12-01T04:36:41.657Z,97370.03
2022-12-01T04:41:35.279Z,97373.72
2022-12-01T04:46:28.646Z,97372.00
2022-12-01T04:51:23.116Z,97365.75
2022-12-01T04:56:17.931Z,97371.22
2022-12-01T05:01:15.709Z,97367.91
2022-12-01T05:06:13.261Z,97363.53
2022-12-01T05:11:08.173Z,97372.91
2022-12-01T05:16:09.353Z,97375.50
2022-12-01T05:21:04.101Z,97375.13
2022-12-01T05:25:57.868Z,97380.56
2022-12-01T05:30:51.990Z,97375.50
2022-12-01T05:35:46.746Z,97383.16
2022-12-01T05:40:40.300Z,97382.34
2022-12-01T05:45:34.290Z,97377.06
2022-12-01T05:50:29.334Z,97376.69
2022-12-01T05:55:24.121Z,97377.81
2022-12-01T06:00:19.147Z,97377.75
2022-12-01T06:05:12.603Z,97376.50
2022-12-01T06:10:07.985Z,97377.91
2022-12-01T06:15:02.814Z,97383.16
2022-12-01T06:19:56.187Z,97388.75
2022-12-01T06:24:49.534Z,97393.59
2022-12-01T06:29:43.711Z,97393.03
2022-12-01T06:34:38.472Z,97392.19
2022-12-01T06:39:31.935Z,97395.53
2022-12-01T06:44:25.388Z,97398.97
2022-12-01T06:49:18.717Z,97393.94
2022-12-01T06:54:15.351Z,97403.09
2022-12-01T06:59:08.909Z,97405.28
2022-12-01T07:04:02.670Z,97410.84
2022-12-01T07:08:55.985Z,97412.75
2022-12-01T07:13:50.977Z,97426.84
2022-12-01T07:18:45.292Z,97419.75
2022-12-01T07:23:38.826Z,97427.28
2022-12-01T07:28:32.456Z,97431.88
2022-12-01T07:33:27.173Z,97434.53
2022-12-01T07:38:22.288Z,97431.03
2022-12-01T07:43:15.993Z,97425.34
2022-12-01T07:48:09.367Z,97425.72
2022-12-01T07:53:04.147Z,97432.47
2022-12-01T07:58:00.736Z,97421.38
2022-12-01T08:02:54.199Z,97424.00
2022-12-01T08:07:47.566Z,97431.31
2022-12-01T08:12:42.332Z,97433.28
2022-12-01T08:17:35.725Z,97439.47
2022-12-01T08:22:29.085Z,97432.97
2022-12-01T08:27:22.461Z,97426.13
2022-12-01T08:32:18.115Z,97428.75
2022-12-01T08:37:11.658Z,97424.44
2022-12-01T08:42:05.264Z,97427.38
2022-12-01T08:46:58.755Z,97425.31
2022-12-01T08:51:53.837Z,97433.06
2022-12-01T08:56:47.387Z,97431.97
2022-12-01T09:01:52.124Z,97430.69
2022-12-01T09:06:48.331Z,97435.00
2022-12-01T09:11:44.424Z,97434.38
2022-12-01T09:16:38.433Z,97443.06
2022-12-01T09:21:34.930Z,97450.66
2022-12-01T09:26:29.333Z,97453.59
2022-12-01T09:31:24.671Z,97444.00
2022-12-01T09:36:18.159Z,97447.44
2022-12-01T09:41:20.388Z,97444.72
2022-12-01T09:46:21.488Z,97437.22
2022-12-01T09:51:18.437Z,97449.88
2022-12-01T09:56:23.294Z,97441.94
2022-12-01T10:01:25.846Z,97445.16
2022-12-01T10:06:30.723Z,97443.28
2022-12-01T10:11:34.478Z,97436.28
2022-12-01T10:16:38.936Z,97428.91
2022-12-01T10:22:04.520Z,97424.00
2022-12-01T10:27:15.286Z,97422.59
2022-12-01T10:32:19.966Z,97415.56
2022-12-01T10:37:34.631Z,97408.03
2022-12-01T10:42:38.754Z,97410.81
2022-12-01T10:47:32.866Z,97413.78
2022-12-01T10:52:37.245Z,97406.34
2022-12-01T10:57:33.205Z,97404.09
2022-12-01T11:02:36.326Z,97392.72
2022-12-01T11:07:36.109Z,97392.59
2022-12-01T11:12:30.419Z,97390.75
2022-12-01T11:17:37.414Z,97398.41
2022-12-01T11:22:33.933Z,97387.59
2022-12-01T11:27:31.717Z,97383.16
2022-12-01T11:32:39.215Z,97378.69
2022-12-01T11:37:39.406Z,97381.91
2022-12-01T11:42:34.563Z,97379.13
2022-12-01T11:47:29.361Z,97380.66
2022-12-01T11:52:33.681Z,97377.41
2022-12-01T11:57:36.392Z,97379.03
2022-12-01T12:02:44.525Z,97393.16
2022-12-01T12:07:57.350Z,97374.31
2022-12-01T12:13:15.067Z,97376.16
2022-12-01T12:18:48.712Z,97370.97
2022-12-01T12:24:18.194Z,97379.97
2022-12-01T12:29:37.408Z,97372.94
2022-12-01T12:34:48.816Z,97372.78
2022-12-01T12:40:21.073Z,97373.00
2022-12-01T12:45:26.515Z,97369.94
2022-12-01T12:50:32.611Z,97371.59
2022-12-01T13:00:38.163Z,97359.03
2022-12-01T13:11:01.689Z,97361.81
2022-12-01T13:16:00.778Z,97359.38
2022-12-01T13:20:54.498Z,97359.56
2022-12-01T13:26:01.384Z,97354.53
2022-12-01T13:31:19.787Z,97350.28
2022-12-01T13:41:30.812Z,97354.72
2022-12-01T13:46:30.802Z,97347.06
2022-12-01T13:51:25.394Z,97349.53
2022-12-01T13:56:48.388Z,97355.03
2022-12-01T14:12:25.362Z,97349.28
2022-12-01T14:17:30.627Z,97349.63
2022-12-01T14:22:46.900Z,97348.91
2022-12-01T14:27:43.311Z,97350.66
2022-12-01T14:32:39.577Z,97349.47
2022-12-01T14:48:00.882Z,97362.41
2022-12-01T14:53:00.119Z,97367.72
2022-12-01T14:58:06.342Z,97365.50
2022-12-01T15:03:08.310Z,97356.97
2022-12-01T15:08:40.884Z,97365.13
2022-12-01T15:13:42.242Z,97364.03
2022-12-01T15:18:38.481Z,97354.09
2022-12-01T15:23:31.799Z,97360.09
2022-12-01T15:28:33.664Z,97358.53
2022-12-01T15:33:36.786Z,97354.72
2022-12-01T15:38:36.814Z,97352.69
2022-12-01T15:43:37.839Z,97352.63
2022-12-01T15:48:35.445Z,97357.97
2022-12-01T15:53:33.937Z,97365.50
2022-12-01T16:03:29.489Z,97348.84
2022-12-01T16:08:27.132Z,97355.00
2022-12-01T16:13:45.478Z,97350.91
2022-12-01T16:18:38.824Z,97343.78
2022-12-01T16:23:34.085Z,97352.28
2022-12-01T16:28:35.821Z,97354.75
2022-12-01T16:33:30.937Z,97359.03
2022-12-01T16:38:31.489Z,97348.34
2022-12-01T16:43:27.978Z,97357.28
2022-12-01T16:48:21.758Z,97364.09
2022-12-01T16:53:17.207Z,97356.72
2022-12-01T16:58:24.284Z,97360.78
2022-12-01T17:03:18.613Z,97366.34
2022-12-01T17:08:12.122Z,97369.00
2022-12-01T17:13:06.860Z,97357.97
2022-12-01T17:18:00.213Z,97359.88
2022-12-01T17:22:53.606Z,97353.81
2022-12-01T17:27:47.015Z,97344.06
2022-12-01T17:32:41.709Z,97349.34
2022-12-01T17:37:36.942Z,97341.59
2022-12-01T17:42:32.573Z,97355.78
2022-12-01T17:47:27.170Z,97355.16
2022-12-01T17:52:26.644Z,97356.44
2022-12-01T17:57:21.795Z,97359.72
2022-12-01T18:02:15.243Z,97360.63
2022-12-01T18:07:08.634Z,97354.19
2022-12-01T18:12:03.447Z,97347.09
2022-12-01T18:16:56.779Z,97360.03
2022-12-01T18:21:50.796Z,97353.41
2022-12-01T18:26:44.775Z,97365.06
2022-12-01T18:31:40.443Z,97355.78
2022-12-01T18:36:38.332Z,97367.38
2022-12-01T18:41:32.220Z,97369.19
2022-12-01T18:46:25.704Z,97369.69
2022-12-01T18:51:22.103Z,97372.91
2022-12-01T18:56:17.340Z,97377.44
2022-12-01T19:01:21.517Z,97368.59
2022-12-01T19:06:15.034Z,97373.00
2022-12-01T19:16:12.116Z,97375.53
2022-12-01T19:21:08.232Z,97375.72
2022-12-01T19:26:06.089Z,97372.28
2022-12-01T19:30:59.552Z,97379.44
2022-12-01T19:35:54.468Z,97371.38
2022-12-01T19:40:47.948Z,97367.03
2022-12-01T19:45:41.779Z,97371.28
2022-12-01T19:50:36.717Z,97369.41
2022-12-01T19:55:31.709Z,97378.31
2022-12-01T20:00:34.019Z,97373.69
2022-12-01T20:05:27.954Z,97373.34
2022-12-01T20:10:28.227Z,97366.66
2022-12-01T20:15:23.377Z,97356.34
2022-12-01T20:20:17.825Z,97361.00
2022-12-01T20:25:11.151Z,97346.81
2022-12-01T20:30:05.107Z,97364.34
2022-12-01T20:34:59.845Z,97372.75
2022-12-01T20:39:53.226Z,97363.63
2022-12-01T20:44:46.680Z,97362.09
2022-12-01T20:49:40.135Z,97364.81
2022-12-01T20:54:35.046Z,97357.69
2022-12-01T20:59:29.949Z,97362.09
2022-12-01T21:04:23.426Z,97363.78
2022-12-01T21:09:16.899Z,97354.56
2022-12-01T21:14:20.979Z,97356.91
2022-12-01T21:19:23.036Z,97352.50
2022-12-01T21:24:19.906Z,97351.72
2022-12-01T21:29:25.063Z,97340.22
2022-12-01T21:34:22.126Z,97332.97
2022-12-01T21:39:18.499Z,97327.28
2022-12-01T21:44:17.309Z,97320.00
2022-12-01T21:49:22.671Z,97307.72
2022-12-01T21:54:21.026Z,97319.78
2022-12-01T21:59:20.534Z,97328.03
2022-12-01T22:04:24.720Z,97319.41
2022-12-01T22:56:31.981Z,97280.53
2022-12-01T23:01:30.246Z,97271.84
2022-12-01T23:07:08.394Z,97272.72
2022-12-01T23:25:31.456Z,97305.44
2022-12-01T23:30:25.173Z,97300.16
2022-12-01T23:35:19.773Z,97297.09
2022-12-01T23:40:24.476Z,97283.47
2022-12-01T23:45:26.909Z,97281.38
2022-12-01T23:50:25.802Z,97289.09
2022-12-01T23:55:26.754Z,97274.16
